KHAI/HAI METAR and TAF weather

Enter ICAO airport designator
Station Type Date Time Source
KHAI METAR 2019/10/15 03:36 UTC NOAA

KHAI 150336Z AUTO 00000KT 10SM CLR 03/01 A3009 RMK AO2 T00290010


Station Type Date Time Source
KHAI Decoded METAR 2019/10/15 03:36 UTC NOAA

Station name not available
Oct 14, 2019 - 11:36 PM EDT / 2019.10.15 0336 UTC
Wind: Calm:0
Visibility: 10 mile(s):0
Sky conditions: clear
Temperature: 37.2 F (2.9 C)
Dew Point: 33.8 F (1.0 C)
Relative Humidity: 87%
Pressure (altimeter): 30.09 in. Hg (1018 hPa)
ob: KHAI 150336Z AUTO 00000KT 10SM CLR 03/01 A3009 RMK AO2 T00290010
cycle: 3

Station Type Date Time Source
KHAI TAF UTC NOAA

Error!

Example: see airport list